Time;durP1;ratioP1;P1;durP2;ratioP2;P2;SDS_P1;SDS_P2;PMS_P1;PMS_P2;Temp;Humidity;BMP_temperature;BMP_pressure;BME280_temperature;BME280_humidity;BME280_pressure;Samples;Min_cycle;Max_cycle;Signal;HPM_P1;HPM_P2
2022/05/17 00:03:49;;;;;;;4.17;2.80;;;19.90;42.90;;;;;;10365986;28;20234;-72
2022/05/17 00:08:53;;;;;;;5.57;3.13;;;19.90;42.30;;;;;;10366001;28;20226;-72
2022/05/17 00:13:58;;;;;;;3.23;2.97;;;19.90;42.40;;;;;;10365405;28;20230;-73
2022/05/17 00:19:01;;;;;;;3.87;3.13;;;19.90;43.10;;;;;;10348508;28;20233;-73
2022/05/17 00:24:06;;;;;;;3.50;3.20;;;19.90;42.40;;;;;;10324416;28;20260;-72
2022/05/17 00:29:11;;;;;;;4.13;3.10;;;19.90;42.60;;;;;;10325009;28;20237;-73
2022/05/17 00:34:15;;;;;;;3.30;3.00;;;19.90;43.10;;;;;;10324859;28;20238;-73
2022/05/17 00:39:18;;;;;;;3.27;2.80;;;19.90;42.60;;;;;;10339251;28;20236;-71
2022/05/17 00:49:46;;;;;;;3.50;3.10;;;20.00;42.90;;;;;;10364742;28;20226;-72
2022/05/17 00:54:52;;;;;;;4.07;3.20;;;20.00;42.70;;;;;;10374982;28;20240;-72
2022/05/17 01:00:00;;;;;;;3.23;2.90;;;20.00;42.90;;;;;;10405376;28;20229;-72
2022/05/17 01:05:05;;;;;;;3.63;3.20;;;20.00;43.20;;;;;;10404480;28;20226;-71
2022/05/17 01:10:10;;;;;;;4.50;3.27;;;20.00;43.00;;;;;;10405015;28;20288;-73
2022/05/17 01:15:14;;;;;;;5.47;3.40;;;19.90;42.60;;;;;;10405061;28;20225;-72
2022/05/17 01:20:18;;;;;;;3.50;3.20;;;19.80;42.90;;;;;;10404674;28;20606;-72
2022/05/17 01:25:23;;;;;;;4.67;3.40;;;19.80;42.50;;;;;;10404220;28;20741;-73
2022/05/17 01:30:30;;;;;;;4.60;3.40;;;19.80;43.00;;;;;;10404319;28;20232;-72
2022/05/17 01:35:34;;;;;;;4.47;3.53;;;19.70;43.00;;;;;;10404338;28;20233;-72
2022/05/17 01:40:39;;;;;;;4.23;3.50;;;19.70;42.50;;;;;;10370706;28;20306;-73
2022/05/17 01:45:42;;;;;;;3.57;3.27;;;19.70;43.10;;;;;;10363392;28;20239;-73
2022/05/17 01:50:45;;;;;;;4.27;3.17;;;19.70;42.50;;;;;;10363466;28;20234;-73
2022/05/17 01:55:50;;;;;;;3.30;3.00;;;19.70;42.60;;;;;;10363407;28;20238;-72
2022/05/17 02:00:53;;;;;;;3.73;3.43;;;19.60;42.80;;;;;;10363417;28;20230;-72
2022/05/17 02:05:56;;;;;;;4.53;3.47;;;19.60;42.40;;;;;;10363219;28;20317;-72
2022/05/17 02:11:01;;;;;;;4.40;3.10;;;19.60;42.60;;;;;;10363007;28;20230;-72
2022/05/17 02:16:05;;;;;;;3.67;3.37;;;19.50;42.90;;;;;;10322284;28;20234;-73
2022/05/17 02:21:09;;;;;;;4.93;3.50;;;19.50;42.60;;;;;;10329038;28;20803;-72
2022/05/17 02:26:14;;;;;;;3.60;3.30;;;19.50;42.60;;;;;;10329425;28;20671;-72
2022/05/17 02:31:18;;;;;;;5.10;3.43;;;19.50;42.90;;;;;;10329221;28;20238;-72
2022/05/17 02:36:22;;;;;;;3.70;3.40;;;19.40;42.30;;;;;;10329185;28;20292;-72
2022/05/17 02:41:26;;;;;;;4.10;3.40;;;19.40;42.50;;;;;;10328860;28;20227;-73
2022/05/17 02:46:30;;;;;;;3.70;3.23;;;19.30;42.70;;;;;;10328876;28;20230;-72
2022/05/17 02:51:34;;;;;;;4.60;3.20;;;19.30;42.50;;;;;;10328394;28;20227;-72
2022/05/17 02:56:39;;;;;;;5.93;3.93;;;19.30;42.50;;;;;;10328187;28;20294;-73
2022/05/17 03:01:42;;;;;;;5.63;3.30;;;19.20;42.90;;;;;;10328418;28;20237;-72
2022/05/17 03:06:46;;;;;;;4.23;3.83;;;19.20;42.40;;;;;;10327954;28;20262;-72
2022/05/17 03:11:51;;;;;;;7.40;4.00;;;19.20;42.70;;;;;;10327831;28;20237;-72
2022/05/17 03:16:54;;;;;;;4.10;3.60;;;19.10;42.80;;;;;;10326724;28;20227;-72
2022/05/17 03:21:58;;;;;;;3.80;3.50;;;19.10;42.50;;;;;;10327144;28;20231;-72
2022/05/17 03:27:02;;;;;;;3.90;3.50;;;19.00;42.70;;;;;;10326598;28;20237;-72
2022/05/17 03:32:07;;;;;;;4.20;3.80;;;19.00;43.80;;;;;;10325531;28;20230;-72
2022/05/17 03:37:10;;;;;;;4.73;3.47;;;19.00;42.80;;;;;;10326540;28;20322;-72
2022/05/17 03:42:14;;;;;;;3.93;3.63;;;19.00;42.50;;;;;;10327052;28;20235;-72
2022/05/17 03:47:18;;;;;;;4.40;4.00;;;19.00;42.90;;;;;;10326605;28;20227;-72
2022/05/17 03:52:25;;;;;;;4.30;3.90;;;19.00;42.70;;;;;;10326671;28;20302;-73
2022/05/17 03:57:30;;;;;;;4.70;4.17;;;18.90;43.40;;;;;;10326128;28;20258;-72
2022/05/17 04:02:35;;;;;;;4.97;4.17;;;18.80;43.30;;;;;;10326007;28;20317;-72
2022/05/17 04:07:39;;;;;;;5.03;4.20;;;18.80;43.10;;;;;;10325489;28;20229;-72
2022/05/17 04:12:45;;;;;;;4.43;4.00;;;18.70;43.10;;;;;;10325668;28;20314;-72
2022/05/17 04:17:49;;;;;;;5.13;4.63;;;18.80;44.40;;;;;;10325368;28;20746;-72
2022/05/17 04:22:53;;;;;;;4.87;4.47;;;18.80;43.40;;;;;;10323074;28;20235;-72
2022/05/17 04:27:58;;;;;;;5.20;4.23;;;18.80;44.20;;;;;;10319764;28;20235;-72
2022/05/17 04:33:02;;;;;;;5.17;4.33;;;18.80;43.80;;;;;;10320045;28;20229;-72
2022/05/17 04:38:06;;;;;;;4.90;4.23;;;18.80;43.50;;;;;;10324469;28;20227;-72
2022/05/17 04:43:12;;;;;;;4.67;4.13;;;18.80;43.40;;;;;;10324269;28;20244;-71
2022/05/17 04:48:15;;;;;;;4.83;4.43;;;18.90;43.80;;;;;;10323134;28;20239;-72
2022/05/17 04:53:20;;;;;;;4.67;4.20;;;18.90;43.30;;;;;;10324089;28;20235;-72
2022/05/17 04:58:26;;;;;;;5.40;4.90;;;19.00;43.60;;;;;;10320515;28;20231;-71
2022/05/17 05:03:29;;;;;;;6.27;4.40;;;19.00;43.80;;;;;;10320307;28;20246;-72
2022/05/17 05:08:32;;;;;;;6.97;4.37;;;19.10;43.50;;;;;;10327883;28;20236;-71
2022/05/17 05:13:37;;;;;;;5.07;4.60;;;19.10;43.40;;;;;;10363822;28;20230;-71
2022/05/17 05:18:40;;;;;;;5.13;4.63;;;19.10;43.80;;;;;;10356536;28;20252;-72
2022/05/17 05:23:44;;;;;;;5.13;4.63;;;19.20;43.60;;;;;;10361561;28;20596;-72
2022/05/17 05:28:49;;;;;;;6.47;5.30;;;19.30;43.80;;;;;;10364190;28;20230;-72
2022/05/17 05:33:52;;;;;;;5.50;4.93;;;19.30;43.80;;;;;;10364050;28;20252;-72
2022/05/17 05:38:56;;;;;;;5.53;5.03;;;19.30;43.50;;;;;;10363838;28;20738;-70
2022/05/17 05:44:00;;;;;;;5.57;4.67;;;19.40;43.90;;;;;;10363584;28;20234;-72
2022/05/17 05:49:03;;;;;;;7.90;5.00;;;19.40;44.10;;;;;;10355677;28;20230;-72
2022/05/17 05:54:07;;;;;;;5.73;5.17;;;19.40;43.70;;;;;;10367606;28;20238;-73
2022/05/17 05:59:11;;;;;;;5.57;4.97;;;19.50;43.80;;;;;;10365855;28;20236;-73
2022/05/17 06:04:15;;;;;;;5.97;4.83;;;19.50;44.10;;;;;;10364205;28;20241;-70
2022/05/17 06:09:18;;;;;;;6.73;5.70;;;19.50;43.90;;;;;;10364285;28;21090;-71
2022/05/17 06:14:23;;;;;;;6.17;5.57;;;19.60;44.00;;;;;;10365312;28;20727;-70
2022/05/17 06:19:27;;;;;;;7.47;5.20;;;19.60;44.30;;;;;;10365138;28;20226;-70
2022/05/17 06:24:31;;;;;;;5.80;5.30;;;19.70;44.10;;;;;;10366504;28;20794;-70
2022/05/17 06:29:35;;;;;;;7.53;6.20;;;19.70;44.30;;;;;;10370147;28;20230;-70
2022/05/17 06:34:39;;;;;;;6.83;6.07;;;19.80;44.20;;;;;;10367964;28;20230;-70
2022/05/17 06:39:43;;;;;;;7.07;6.37;;;19.90;44.10;;;;;;10368700;28;20248;-70
2022/05/17 06:44:47;;;;;;;7.10;6.40;;;20.00;44.40;;;;;;10369485;28;20229;-70
2022/05/17 06:49:51;;;;;;;6.77;6.17;;;20.10;44.70;;;;;;10366733;28;20234;-70
2022/05/17 06:54:55;;;;;;;8.27;7.57;;;20.10;44.20;;;;;;10369029;28;20230;-70
2022/05/17 06:59:59;;;;;;;8.00;7.30;;;20.30;44.20;;;;;;10369029;28;20236;-70
2022/05/17 07:05:03;;;;;;;7.73;7.03;;;20.30;44.40;;;;;;10368307;28;20234;-70
2022/05/17 07:15:34;;;;;;;8.73;7.27;;;20.50;44.50;;;;;;10368354;28;20226;-70
2022/05/17 07:20:38;;;;;;;8.83;8.03;;;20.60;44.80;;;;;;10368228;28;20621;-70
2022/05/17 07:25:42;;;;;;;9.67;8.70;;;20.80;44.30;;;;;;10368055;28;20669;-69
2022/05/17 07:30:47;;;;;;;9.00;8.20;;;20.90;44.00;;;;;;10368027;28;20231;-70
2022/05/17 07:35:50;;;;;;;9.80;8.30;;;21.10;44.40;;;;;;10367522;28;20337;-70
2022/05/17 07:40:54;;;;;;;9.53;8.60;;;21.20;43.70;;;;;;10367468;28;20907;-70
2022/05/17 07:45:58;;;;;;;9.70;8.80;;;21.30;44.00;;;;;;10367416;28;20325;-70
2022/05/17 07:51:01;;;;;;;9.43;8.63;;;21.50;44.00;;;;;;10367007;28;20836;-70
2022/05/17 07:56:05;;;;;;;8.67;7.73;;;21.60;43.10;;;;;;10366762;28;20234;-70
2022/05/17 08:01:10;;;;;;;9.80;8.90;;;21.80;43.10;;;;;;10366676;28;20730;-70
2022/05/17 08:06:13;;;;;;;10.57;9.10;;;21.90;42.10;;;;;;10366957;28;20288;-70
2022/05/17 08:11:17;;;;;;;9.27;8.23;;;22.00;42.20;;;;;;10366643;28;20238;-70
2022/05/17 08:16:22;;;;;;;8.90;8.00;;;22.10;42.40;;;;;;10365769;28;20248;-66
2022/05/17 08:21:25;;;;;;;8.77;7.97;;;22.30;42.60;;;;;;10359160;28;20319;-71
2022/05/17 08:37:07;;;;;;;8.07;7.30;;;23.00;40.70;;;;;;10326542;28;20218;-71
2022/05/17 08:42:20;;;;;;;8.73;7.83;;;23.10;40.50;;;;;;10357976;28;20233;-71
2022/05/17 08:47:34;;;;;;;7.43;6.47;;;23.10;40.20;;;;;;10357701;28;20786;-71
2022/05/17 08:52:58;;;;;;;10.43;7.50;;;23.30;39.00;;;;;;10359518;28;20217;-71
2022/05/17 08:58:06;;;;;;;8.73;7.73;;;23.40;39.50;;;;;;10359206;28;20737;-71
2022/05/17 09:03:25;;;;;;;8.30;7.60;;;23.50;39.10;;;;;;10321367;28;20220;-71
2022/05/17 09:08:36;;;;;;;7.53;6.83;;;23.50;39.00;;;;;;10319157;28;20230;-71
2022/05/17 09:13:51;;;;;;;7.47;6.67;;;23.50;37.00;;;;;;10348010;28;20747;-72
2022/05/17 09:19:13;;;;;;;7.70;7.00;;;23.50;37.50;;;;;;10347414;28;20706;-71
2022/05/17 09:24:19;;;;;;;8.47;6.80;;;23.60;37.50;;;;;;10352629;28;20963;-71
2022/05/17 09:29:29;;;;;;;6.97;6.37;;;23.70;37.70;;;;;;10354550;28;21139;-71
2022/05/17 09:34:36;;;;;;;7.20;5.47;;;23.80;37.10;;;;;;10335467;28;20231;-71
2022/05/17 09:39:40;;;;;;;6.20;5.60;;;23.80;35.90;;;;;;10325909;28;20316;-71
2022/05/17 09:44:45;;;;;;;6.23;5.43;;;23.90;37.10;;;;;;10318691;28;20735;-71
2022/05/17 09:55:20;;;;;;;7.07;5.47;;;24.20;36.20;;;;;;10322173;28;20703;-71
2022/05/17 10:00:27;;;;;;;6.73;5.30;;;24.30;35.20;;;;;;10342835;28;20230;-71
2022/05/17 10:05:46;;;;;;;5.67;5.17;;;24.30;36.10;;;;;;10341231;28;20228;-71
2022/05/17 10:11:03;;;;;;;5.83;5.33;;;24.40;34.10;;;;;;10356134;28;20222;-71
2022/05/17 10:16:12;;;;;;;5.77;5.27;;;24.50;33.50;;;;;;10347483;28;20223;-71
2022/05/17 10:21:22;;;;;;;4.70;4.30;;;24.60;34.30;;;;;;10357935;28;20311;-71
2022/05/17 10:26:33;;;;;;;5.60;5.10;;;24.60;33.70;;;;;;10365486;28;20230;-71
2022/05/17 10:31:43;;;;;;;6.67;6.07;;;24.60;34.20;;;;;;10354561;28;20230;-72
2022/05/17 10:36:52;;;;;;;5.47;4.97;;;24.70;34.50;;;;;;10356428;28;20232;-72
2022/05/17 10:41:56;;;;;;;4.60;4.20;;;24.60;34.00;;;;;;10361718;28;20222;-72
2022/05/17 10:47:08;;;;;;;5.00;4.50;;;24.70;36.20;;;;;;10354835;28;20769;-71
2022/05/17 10:52:22;;;;;;;4.20;3.80;;;24.90;31.80;;;;;;10361226;28;20213;-71
2022/05/17 10:57:34;;;;;;;4.40;4.00;;;25.00;33.00;;;;;;10356608;28;20237;-72
2022/05/17 11:03:10;;;;;;;4.30;3.90;;;25.00;32.80;;;;;;10357817;28;20223;-72
2022/05/17 11:08:25;;;;;;;4.23;3.60;;;25.10;33.10;;;;;;10358137;28;20222;-72
2022/05/17 11:13:33;;;;;;;4.03;3.63;;;25.20;32.20;;;;;;10358030;28;20229;-72
2022/05/17 11:18:42;;;;;;;3.40;3.10;;;25.20;32.30;;;;;;10353266;28;20227;-72
2022/05/17 11:23:53;;;;;;;3.50;3.20;;;25.30;32.60;;;;;;10361783;28;21447;-71
2022/05/17 11:29:18;;;;;;;4.50;3.53;;;25.40;32.50;;;;;;10358376;28;20233;-72
2022/05/17 11:34:35;;;;;;;6.23;3.30;;;25.50;30.10;;;;;;10361814;28;20226;-72
2022/05/17 11:39:47;;;;;;;4.77;3.37;;;25.60;29.90;;;;;;10360612;28;20340;-72
2022/05/17 11:44:51;;;;;;;3.30;3.00;;;25.60;30.60;;;;;;10362704;28;20635;-72
2022/05/17 11:49:54;;;;;;;3.20;3.00;;;25.70;32.20;;;;;;10356657;28;20226;-72
2022/05/17 11:55:02;;;;;;;4.67;3.40;;;25.80;31.60;;;;;;10358451;28;20235;-72
2022/05/17 12:00:09;;;;;;;3.10;2.90;;;25.90;29.10;;;;;;10360457;28;20254;-72
2022/05/17 12:05:14;;;;;;;4.10;3.43;;;26.00;29.70;;;;;;10359169;28;20231;-72
2022/05/17 12:10:21;;;;;;;3.20;2.97;;;25.90;30.30;;;;;;10359957;28;20741;-72
2022/05/17 12:15:40;;;;;;;3.63;3.30;;;26.00;30.00;;;;;;10359425;28;20253;-72
2022/05/17 12:21:05;;;;;;;2.77;2.43;;;26.10;28.70;;;;;;10360374;28;20241;-72
2022/05/17 12:26:16;;;;;;;3.60;3.00;;;26.10;28.10;;;;;;10359122;28;20225;-72
2022/05/17 12:31:25;;;;;;;2.60;2.50;;;26.00;28.40;;;;;;10347017;28;20226;-74
2022/05/17 12:36:32;;;;;;;2.83;2.43;;;26.10;27.50;;;;;;10344018;28;20813;-74
2022/05/17 12:47:09;;;;;;;3.23;2.80;;;26.10;28.40;;;;;;10323282;28;20249;-73
2022/05/17 12:52:15;;;;;;;3.50;2.80;;;26.30;29.20;;;;;;10347544;28;20224;-76
2022/05/17 12:57:24;;;;;;;3.40;3.10;;;26.40;28.70;;;;;;10350313;28;20222;-75
2022/05/17 13:02:28;;;;;;;4.13;3.20;;;26.50;28.10;;;;;;10351933;28;21091;-75
2022/05/17 13:07:36;;;;;;;3.17;2.87;;;26.50;28.30;;;;;;10354684;28;20233;-76
2022/05/17 13:12:42;;;;;;;3.40;3.10;;;26.50;28.40;;;;;;10360201;28;20232;-75
2022/05/17 13:17:52;;;;;;;3.17;2.87;;;26.60;27.60;;;;;;10356184;28;20229;-75
2022/05/17 13:22:56;;;;;;;3.20;3.00;;;26.60;27.50;;;;;;10358576;28;20233;-75
2022/05/17 13:28:00;;;;;;;3.10;2.90;;;26.60;27.80;;;;;;10360795;28;20225;-75
2022/05/17 13:33:07;;;;;;;3.10;2.90;;;26.70;27.90;;;;;;10355338;28;20250;-74
2022/05/17 13:38:24;;;;;;;2.90;2.70;;;26.70;27.70;;;;;;10360888;28;20237;-75
2022/05/17 13:43:36;;;;;;;3.03;2.80;;;26.90;26.70;;;;;;10354789;28;20234;-75
2022/05/17 13:48:42;;;;;;;2.87;2.60;;;27.00;26.60;;;;;;10357397;28;20222;-75
2022/05/17 13:53:49;;;;;;;3.20;3.00;;;27.10;26.80;;;;;;10356521;28;20242;-75
2022/05/17 13:59:02;;;;;;;3.73;3.43;;;27.20;26.30;;;;;;10350947;28;20241;-74
2022/05/17 14:04:12;;;;;;;3.77;2.90;;;27.20;25.20;;;;;;10354334;28;20227;-74
2022/05/17 14:14:38;;;;;;;4.03;3.20;;;27.20;26.00;;;;;;10354174;28;20233;-74
2022/05/17 14:19:44;;;;;;;3.60;3.10;;;27.20;26.10;;;;;;10353080;28;20241;-75
2022/05/17 14:24:47;;;;;;;4.43;3.50;;;27.20;25.90;;;;;;10350922;28;20270;-75
2022/05/17 14:29:52;;;;;;;4.53;3.47;;;27.20;25.90;;;;;;10363705;28;20241;-74
2022/05/17 14:34:56;;;;;;;3.67;3.37;;;27.30;25.60;;;;;;10359262;28;20230;-74
2022/05/17 14:39:59;;;;;;;4.40;3.50;;;27.40;26.10;;;;;;10356741;28;20223;-74
2022/05/17 14:45:06;;;;;;;3.67;3.47;;;27.60;25.90;;;;;;10359608;28;20222;-75
2022/05/17 14:50:10;;;;;;;5.03;3.60;;;27.60;25.00;;;;;;10357198;28;20314;-75
2022/05/17 14:55:15;;;;;;;3.80;3.50;;;27.70;24.70;;;;;;10360850;28;20709;-74
2022/05/17 15:00:23;;;;;;;3.80;3.40;;;27.60;25.00;;;;;;10358844;28;20230;-75
2022/05/17 15:05:27;;;;;;;3.67;3.37;;;27.60;24.90;;;;;;10359612;28;20246;-74
2022/05/17 15:10:33;;;;;;;3.80;3.50;;;27.60;24.10;;;;;;10355284;28;20222;-76
2022/05/17 15:15:44;;;;;;;6.17;3.50;;;27.60;25.10;;;;;;10357804;28;20576;-77
2022/05/17 15:20:50;;;;;;;3.93;3.17;;;27.70;24.40;;;;;;10351031;28;20237;-77
2022/05/17 15:25:53;;;;;;;3.67;3.40;;;27.70;25.20;;;;;;10365931;28;20244;-74
2022/05/17 15:30:58;;;;;;;3.37;3.17;;;27.80;25.40;;;;;;10395776;28;20222;-77
2022/05/17 15:36:02;;;;;;;4.37;3.73;;;27.90;25.00;;;;;;10363954;28;20230;-74
2022/05/17 15:41:05;;;;;;;4.20;3.90;;;27.80;25.30;;;;;;10369216;28;20248;-74
2022/05/17 15:46:16;;;;;;;3.43;3.20;;;27.80;25.00;;;;;;10362561;28;20272;-76
2022/05/17 15:56:46;;;;;;;3.30;3.10;;;27.80;24.00;;;;;;10360218;28;20248;-74
2022/05/17 16:01:55;;;;;;;4.70;3.33;;;27.80;24.70;;;;;;10365602;28;20234;-75
2022/05/17 16:08:01;;;;;;;5.27;3.27;;;27.80;24.20;;;;;;10367209;28;20261;-75
2022/05/17 16:12:22;;;;;;;3.40;3.20;;;27.80;24.60;;;;;;10366666;28;20257;-76
2022/05/17 16:17:27;;;;;;;3.60;3.30;;;27.80;24.40;;;;;;10366623;28;20237;-76
2022/05/17 16:22:34;;;;;;;3.53;3.23;;;27.80;24.10;;;;;;10366528;28;20237;-76
2022/05/17 16:27:37;;;;;;;3.50;3.20;;;27.80;24.00;;;;;;10365793;28;20242;-76
2022/05/17 16:32:44;;;;;;;3.53;3.10;;;27.80;24.20;;;;;;10366307;28;20241;-76
2022/05/17 16:37:47;;;;;;;3.30;3.00;;;27.90;23.20;;;;;;10366506;28;20728;-76
2022/05/17 16:42:51;;;;;;;2.77;2.57;;;27.90;23.40;;;;;;10367542;28;20289;-76
2022/05/17 16:47:56;;;;;;;2.87;2.77;;;27.90;23.60;;;;;;10366356;28;20318;-76
2022/05/17 16:52:59;;;;;;;2.97;2.77;;;27.90;23.70;;;;;;10365596;28;20226;-77
2022/05/17 16:58:03;;;;;;;3.23;2.93;;;27.90;23.80;;;;;;10366738;28;20230;-76
2022/05/17 17:03:11;;;;;;;2.83;2.63;;;27.90;23.80;;;;;;10363125;28;20273;-78
2022/05/17 17:08:16;;;;;;;3.00;2.80;;;27.90;22.80;;;;;;10362882;28;20218;-78
2022/05/17 17:13:20;;;;;;;2.80;2.60;;;27.90;23.50;;;;;;10369237;28;20236;-77
2022/05/17 17:18:29;;;;;;;3.10;2.87;;;27.90;24.00;;;;;;10363552;28;20230;-78
2022/05/17 17:23:33;;;;;;;3.47;2.50;;;27.90;23.20;;;;;;10379348;28;20230;-78
2022/05/17 17:28:38;;;;;;;2.70;2.50;;;27.90;23.50;;;;;;10372812;28;20238;-78
2022/05/17 17:39:04;;;;;;;2.90;2.70;;;27.90;23.10;;;;;;10357848;28;20338;-77
2022/05/17 17:44:08;;;;;;;3.60;2.83;;;27.90;23.60;;;;;;10356147;28;20223;-77
2022/05/17 17:49:16;;;;;;;2.80;2.60;;;27.80;23.40;;;;;;10358427;28;20222;-77
2022/05/17 17:54:19;;;;;;;2.77;2.57;;;27.80;22.20;;;;;;10360684;28;20230;-77
2022/05/17 17:59:23;;;;;;;2.80;2.20;;;27.70;22.60;;;;;;10362154;28;20235;-77
2022/05/17 18:04:28;;;;;;;2.30;2.10;;;27.60;22.40;;;;;;10361297;28;20739;-77
2022/05/17 18:09:32;;;;;;;2.27;2.13;;;27.50;22.40;;;;;;10354187;28;20226;-77
2022/05/17 18:14:37;;;;;;;2.00;1.90;;;27.40;22.80;;;;;;10361684;28;20226;-77
2022/05/17 18:19:41;;;;;;;2.50;2.10;;;27.20;23.00;;;;;;10357973;28;20254;-77
2022/05/17 18:24:44;;;;;;;2.20;1.97;;;27.20;23.10;;;;;;10362863;28;20246;-76
2022/05/17 18:29:48;;;;;;;3.17;2.10;;;27.10;23.00;;;;;;10368895;28;20226;-77
2022/05/17 18:34:56;;;;;;;2.13;2.00;;;27.00;23.00;;;;;;10364221;28;20881;-77
2022/05/17 18:40:07;;;;;;;2.20;2.10;;;26.80;22.60;;;;;;10393570;28;20239;-78
2022/05/17 18:45:11;;;;;;;4.07;2.00;;;26.80;23.00;;;;;;10414229;28;21026;-79
2022/05/17 18:50:19;;;;;;;2.83;2.03;;;26.70;23.30;;;;;;10395150;28;21131;-79
2022/05/17 18:55:25;;;;;;;1.90;1.80;;;26.60;23.10;;;;;;10366004;28;20740;-81
2022/05/17 19:00:32;;;;;;;2.27;1.90;;;26.50;23.70;;;;;;10371247;28;20659;-81
2022/05/17 19:05:40;;;;;;;2.57;2.10;;;26.40;23.90;;;;;;10369584;28;20237;-79
2022/05/17 19:16:08;;;;;;;3.00;2.37;;;26.20;24.40;;;;;;10376908;28;20226;-79
2022/05/17 19:21:22;;;;;;;2.67;2.47;;;26.10;24.60;;;;;;10374107;28;20226;-79
2022/05/17 19:26:26;;;;;;;3.47;2.87;;;25.90;24.70;;;;;;10382086;28;20234;-80
2022/05/17 19:31:32;;;;;;;2.57;2.37;;;25.80;24.90;;;;;;10379998;28;20321;-80
2022/05/17 19:42:04;;;;;;;3.20;2.73;;;25.50;25.30;;;;;;10381170;28;20870;-79
2022/05/17 19:47:10;;;;;;;3.00;2.80;;;25.30;25.10;;;;;;10375405;28;20798;-79
2022/05/17 19:52:14;;;;;;;3.43;2.73;;;25.10;25.10;;;;;;10375882;28;20253;-79
2022/05/17 19:57:18;;;;;;;2.90;2.63;;;24.80;25.40;;;;;;10367907;28;20239;-79
2022/05/17 20:02:21;;;;;;;5.10;2.87;;;24.50;25.50;;;;;;10362429;28;20230;-79
2022/05/17 20:07:26;;;;;;;3.10;2.50;;;24.20;25.90;;;;;;10372216;28;20238;-79
2022/05/17 20:12:29;;;;;;;2.70;2.50;;;24.10;26.30;;;;;;10369564;28;20257;-79
2022/05/17 20:17:32;;;;;;;2.77;2.57;;;24.00;26.40;;;;;;10368484;28;20230;-79
2022/05/17 20:22:38;;;;;;;2.90;2.70;;;23.90;26.50;;;;;;10368873;28;20236;-79
2022/05/17 20:27:41;;;;;;;2.87;2.43;;;23.80;26.60;;;;;;10373261;28;20246;-79
2022/05/17 20:32:45;;;;;;;4.17;2.63;;;23.70;26.50;;;;;;10370121;28;20231;-79
2022/05/17 20:37:50;;;;;;;3.23;3.00;;;23.70;26.80;;;;;;10370918;28;20244;-79
2022/05/17 20:42:55;;;;;;;3.13;2.73;;;23.60;27.00;;;;;;10372224;28;20234;-79
2022/05/17 20:53:21;;;;;;;2.67;2.47;;;23.40;26.90;;;;;;10372760;28;20253;-79
2022/05/17 20:58:24;;;;;;;2.80;2.60;;;23.30;27.50;;;;;;10362313;28;20284;-79
2022/05/17 21:03:27;;;;;;;3.60;2.90;;;23.20;27.50;;;;;;10366461;28;20237;-79
2022/05/17 21:08:34;;;;;;;2.67;2.47;;;23.20;27.50;;;;;;10368819;28;20222;-79
2022/05/17 21:13:37;;;;;;;2.90;2.60;;;23.00;27.40;;;;;;10364547;28;20234;-79
2022/05/17 21:18:40;;;;;;;3.57;3.07;;;23.00;27.30;;;;;;10363404;28;20226;-79
2022/05/17 21:23:45;;;;;;;3.33;3.07;;;22.90;27.30;;;;;;10367568;28;20314;-79
2022/05/17 21:28:48;;;;;;;3.00;2.57;;;22.80;27.60;;;;;;10369991;28;20234;-79
2022/05/17 21:33:51;;;;;;;3.40;3.10;;;22.60;27.40;;;;;;10374617;28;20414;-79
2022/05/17 21:38:56;;;;;;;3.60;3.30;;;22.50;27.50;;;;;;10370997;28;20232;-79
2022/05/17 21:44:00;;;;;;;4.53;4.13;;;22.40;27.90;;;;;;10367079;28;20286;-79
2022/05/17 21:49:03;;;;;;;4.40;4.00;;;22.20;27.60;;;;;;10371511;28;20240;-79
2022/05/17 21:54:08;;;;;;;4.83;4.20;;;21.90;27.60;;;;;;10370571;28;20643;-79
2022/05/17 21:59:14;;;;;;;5.53;4.17;;;21.60;28.20;;;;;;10373621;28;20252;-79
2022/05/17 22:04:18;;;;;;;5.70;4.03;;;21.50;28.70;;;;;;10366147;28;20742;-79
2022/05/17 22:09:22;;;;;;;4.97;4.07;;;21.40;28.50;;;;;;10368689;28;20222;-79
2022/05/17 22:14:29;;;;;;;4.40;3.80;;;21.30;28.80;;;;;;10376732;28;20227;-78
2022/05/17 22:19:33;;;;;;;4.10;3.60;;;21.10;29.10;;;;;;10380774;28;20250;-78
2022/05/17 22:24:39;;;;;;;3.83;3.53;;;21.10;29.00;;;;;;10380859;28;20289;-78
2022/05/17 22:29:43;;;;;;;4.33;3.57;;;21.00;29.40;;;;;;10379789;28;20244;-79
2022/05/17 22:34:46;;;;;;;3.77;3.10;;;20.90;29.20;;;;;;10366046;28;20351;-78
2022/05/17 22:39:50;;;;;;;3.43;3.13;;;20.80;29.30;;;;;;10378680;28;20318;-78
2022/05/17 22:50:16;;;;;;;3.40;3.10;;;20.80;29.50;;;;;;10365864;28;20301;-78
2022/05/17 22:55:21;;;;;;;3.70;3.03;;;20.80;29.40;;;;;;10380194;28;20750;-79
2022/05/17 23:00:26;;;;;;;4.23;3.07;;;20.80;29.80;;;;;;10377090;28;20234;-78
2022/05/17 23:05:29;;;;;;;3.73;3.43;;;20.80;29.70;;;;;;10378610;28;20309;-79
2022/05/17 23:10:35;;;;;;;4.10;3.07;;;20.70;29.60;;;;;;10375072;28;20295;-79
2022/05/17 23:15:38;;;;;;;3.33;3.00;;;20.70;29.80;;;;;;10344158;28;20329;-79
2022/05/17 23:20:42;;;;;;;3.97;3.30;;;20.70;29.60;;;;;;10378549;28;20310;-79
2022/05/17 23:31:12;;;;;;;3.20;2.93;;;20.50;30.00;;;;;;10378739;28;20230;-78
2022/05/17 23:36:16;;;;;;;4.27;3.27;;;20.50;29.90;;;;;;10379395;28;20237;-78
2022/05/17 23:41:23;;;;;;;3.60;3.20;;;20.40;29.80;;;;;;10348043;28;20239;-77
2022/05/17 23:46:28;;;;;;;5.40;3.33;;;20.30;30.00;;;;;;10374313;28;21103;-78
2022/05/17 23:51:31;;;;;;;3.37;3.07;;;20.20;29.70;;;;;;10379037;28;20226;-79
2022/05/17 23:56:37;;;;;;;3.30;3.00;;;20.20;29.70;;;;;;10378788;28;20318;-78
